Altdorf, Wisconsin
Current Conditions -  °F | °C
As of 2:54 PM on Sunday 21 Dec 2014 (Local Time) from KISW Reporting Station
Haze Haze  
Wind Chill: -2°   Ceiling: 800
Heat Index:   Visibility: 4mi
Dew Point: -1°   Wind: 7mph
Humidity: 85%   Direction: 160°SSE
Pressure: 29.94"   Gusts: NA
Location:  44.4583°N, 90.0009°W
Report Text: KISW 212054Z AUTO 16006KT 4SM BR OVC008 02/M01 A2994 RMK AO2 SLP150 60000 T00171006 56019
Loading
Personal Weather Stations






























Interactive Weather Map New forecast layout! Learn more

10-Day Weather Forecast

Advertisements
Track Severe Weather on mobile